sensor_id;sensor_type;location;lat;lon;timestamp;P1;durP1;ratioP1;P2;durP2;ratioP2
11092;SDS011;5600;50.864;6.102;2022-12-22T00:02:35;51.13;;;3.43;;
11092;SDS011;5600;50.864;6.102;2022-12-22T00:05:54;25.13;;;2.00;;
11092;SDS011;5600;50.864;6.102;2022-12-22T00:09:13;35.80;;;2.60;;
11092;SDS011;5600;50.864;6.102;2022-12-22T00:12:33;35.47;;;2.47;;
11092;SDS011;5600;50.864;6.102;2022-12-22T00:15:52;42.00;;;2.90;;
11092;SDS011;5600;50.864;6.102;2022-12-22T00:19:12;39.00;;;2.80;;
11092;SDS011;5600;50.864;6.102;2022-12-22T00:22:31;47.40;;;3.03;;
11092;SDS011;5600;50.864;6.102;2022-12-22T00:25:51;38.63;;;2.67;;
11092;SDS011;5600;50.864;6.102;2022-12-22T00:29:11;42.37;;;3.77;;
11092;SDS011;5600;50.864;6.102;2022-12-22T00:32:33;45.80;;;3.03;;
11092;SDS011;5600;50.864;6.102;2022-12-22T00:35:55;44.47;;;2.97;;
11092;SDS011;5600;50.864;6.102;2022-12-22T00:39:15;51.57;;;3.23;;
11092;SDS011;5600;50.864;6.102;2022-12-22T00:42:34;33.73;;;2.47;;
11092;SDS011;5600;50.864;6.102;2022-12-22T00:45:53;37.23;;;2.60;;
11092;SDS011;5600;50.864;6.102;2022-12-22T00:49:13;42.83;;;2.90;;
11092;SDS011;5600;50.864;6.102;2022-12-22T00:52:33;27.70;;;2.07;;
11092;SDS011;5600;50.864;6.102;2022-12-22T00:55:53;40.43;;;2.90;;
11092;SDS011;5600;50.864;6.102;2022-12-22T00:59:12;43.10;;;2.87;;
11092;SDS011;5600;50.864;6.102;2022-12-22T01:02:32;39.37;;;2.70;;
11092;SDS011;5600;50.864;6.102;2022-12-22T01:05:51;54.07;;;3.43;;
11092;SDS011;5600;50.864;6.102;2022-12-22T01:09:10;38.33;;;2.67;;
11092;SDS011;5600;50.864;6.102;2022-12-22T01:12:30;38.50;;;2.70;;
11092;SDS011;5600;50.864;6.102;2022-12-22T01:15:51;46.33;;;3.10;;
11092;SDS011;5600;50.864;6.102;2022-12-22T01:19:11;22.60;;;1.80;;
11092;SDS011;5600;50.864;6.102;2022-12-22T01:22:30;23.87;;;1.87;;
11092;SDS011;5600;50.864;6.102;2022-12-22T01:25:49;44.80;;;3.00;;
11092;SDS011;5600;50.864;6.102;2022-12-22T01:29:09;35.47;;;2.50;;
11092;SDS011;5600;50.864;6.102;2022-12-22T01:32:28;40.67;;;2.80;;
11092;SDS011;5600;50.864;6.102;2022-12-22T01:35:48;44.33;;;3.03;;
11092;SDS011;5600;50.864;6.102;2022-12-22T01:39:07;46.70;;;4.13;;
11092;SDS011;5600;50.864;6.102;2022-12-22T01:42:27;42.13;;;3.10;;
11092;SDS011;5600;50.864;6.102;2022-12-22T01:45:48;41.13;;;2.93;;
11092;SDS011;5600;50.864;6.102;2022-12-22T01:49:10;39.60;;;2.73;;
11092;SDS011;5600;50.864;6.102;2022-12-22T01:52:33;39.70;;;2.70;;
11092;SDS011;5600;50.864;6.102;2022-12-22T01:55:53;52.17;;;3.43;;
11092;SDS011;5600;50.864;6.102;2022-12-22T01:59:14;37.20;;;2.50;;
11092;SDS011;5600;50.864;6.102;2022-12-22T02:02:33;47.03;;;3.20;;
11092;SDS011;5600;50.864;6.102;2022-12-22T02:06:12;37.33;;;2.53;;
11092;SDS011;5600;50.864;6.102;2022-12-22T02:20:52;49.83;;;3.23;;
11092;SDS011;5600;50.864;6.102;2022-12-22T02:27:53;52.73;;;3.40;;
11092;SDS011;5600;50.864;6.102;2022-12-22T02:31:14;36.03;;;2.50;;
11092;SDS011;5600;50.864;6.102;2022-12-22T02:34:33;36.77;;;2.50;;
11092;SDS011;5600;50.864;6.102;2022-12-22T02:37:55;37.07;;;2.53;;
11092;SDS011;5600;50.864;6.102;2022-12-22T02:41:31;34.10;;;2.33;;
11092;SDS011;5600;50.864;6.102;2022-12-22T02:45:13;45.50;;;2.97;;
11092;SDS011;5600;50.864;6.102;2022-12-22T02:49:29;41.30;;;2.73;;
11092;SDS011;5600;50.864;6.102;2022-12-22T02:52:56;54.83;;;3.53;;
11092;SDS011;5600;50.864;6.102;2022-12-22T02:56:17;46.63;;;3.07;;
11092;SDS011;5600;50.864;6.102;2022-12-22T02:59:36;42.07;;;2.80;;
11092;SDS011;5600;50.864;6.102;2022-12-22T03:02:56;48.80;;;3.23;;
11092;SDS011;5600;50.864;6.102;2022-12-22T03:06:15;47.83;;;3.03;;
11092;SDS011;5600;50.864;6.102;2022-12-22T03:09:35;44.80;;;2.90;;
11092;SDS011;5600;50.864;6.102;2022-12-22T03:12:57;35.07;;;2.43;;
11092;SDS011;5600;50.864;6.102;2022-12-22T03:16:17;40.83;;;2.77;;
11092;SDS011;5600;50.864;6.102;2022-12-22T03:19:36;31.17;;;2.20;;
11092;SDS011;5600;50.864;6.102;2022-12-22T03:22:56;62.13;;;3.83;;
11092;SDS011;5600;50.864;6.102;2022-12-22T03:26:20;47.63;;;3.07;;
11092;SDS011;5600;50.864;6.102;2022-12-22T03:29:21;36.10;;;2.50;;
11092;SDS011;5600;50.864;6.102;2022-12-22T03:32:21;35.57;;;2.47;;
11092;SDS011;5600;50.864;6.102;2022-12-22T03:35:22;46.33;;;3.00;;
11092;SDS011;5600;50.864;6.102;2022-12-22T03:38:23;36.57;;;2.63;;
11092;SDS011;5600;50.864;6.102;2022-12-22T03:41:24;47.37;;;3.17;;
11092;SDS011;5600;50.864;6.102;2022-12-22T03:44:43;37.57;;;2.53;;
11092;SDS011;5600;50.864;6.102;2022-12-22T03:48:02;35.93;;;2.53;;
11092;SDS011;5600;50.864;6.102;2022-12-22T03:51:03;47.07;;;3.10;;
11092;SDS011;5600;50.864;6.102;2022-12-22T03:54:04;41.50;;;2.80;;
11092;SDS011;5600;50.864;6.102;2022-12-22T03:57:05;43.37;;;3.00;;
11092;SDS011;5600;50.864;6.102;2022-12-22T04:00:06;58.97;;;3.83;;
11092;SDS011;5600;50.864;6.102;2022-12-22T04:03:12;37.80;;;2.80;;
11092;SDS011;5600;50.864;6.102;2022-12-22T04:06:13;31.53;;;2.37;;
11092;SDS011;5600;50.864;6.102;2022-12-22T04:09:13;43.07;;;3.00;;
11092;SDS011;5600;50.864;6.102;2022-12-22T04:12:14;39.90;;;2.87;;
11092;SDS011;5600;50.864;6.102;2022-12-22T04:15:33;46.97;;;3.23;;
11092;SDS011;5600;50.864;6.102;2022-12-22T04:18:34;38.27;;;2.77;;
11092;SDS011;5600;50.864;6.102;2022-12-22T04:21:35;42.93;;;3.20;;
11092;SDS011;5600;50.864;6.102;2022-12-22T04:24:36;45.27;;;3.30;;
11092;SDS011;5600;50.864;6.102;2022-12-22T04:27:37;67.97;;;4.27;;
11092;SDS011;5600;50.864;6.102;2022-12-22T04:30:38;55.13;;;3.70;;
11092;SDS011;5600;50.864;6.102;2022-12-22T04:33:39;36.63;;;2.90;;
11092;SDS011;5600;50.864;6.102;2022-12-22T04:36:39;44.23;;;3.37;;
11092;SDS011;5600;50.864;6.102;2022-12-22T04:39:40;30.67;;;2.67;;
11092;SDS011;5600;50.864;6.102;2022-12-22T04:42:41;51.40;;;3.63;;
11092;SDS011;5600;50.864;6.102;2022-12-22T04:45:42;51.73;;;3.70;;
11092;SDS011;5600;50.864;6.102;2022-12-22T04:48:43;43.97;;;3.23;;
11092;SDS011;5600;50.864;6.102;2022-12-22T04:51:44;41.53;;;3.30;;
11092;SDS011;5600;50.864;6.102;2022-12-22T04:54:45;45.80;;;4.03;;
11092;SDS011;5600;50.864;6.102;2022-12-22T04:57:45;66.40;;;4.87;;
11092;SDS011;5600;50.864;6.102;2022-12-22T05:00:46;44.17;;;3.60;;
11092;SDS011;5600;50.864;6.102;2022-12-22T05:03:46;32.63;;;2.97;;
11092;SDS011;5600;50.864;6.102;2022-12-22T05:06:47;43.43;;;3.67;;
11092;SDS011;5600;50.864;6.102;2022-12-22T05:09:48;60.10;;;4.37;;
11092;SDS011;5600;50.864;6.102;2022-12-22T05:12:48;67.63;;;4.87;;
11092;SDS011;5600;50.864;6.102;2022-12-22T05:16:00;45.80;;;3.77;;
11092;SDS011;5600;50.864;6.102;2022-12-22T05:19:05;44.07;;;3.77;;
11092;SDS011;5600;50.864;6.102;2022-12-22T05:22:06;54.43;;;4.27;;
11092;SDS011;5600;50.864;6.102;2022-12-22T05:25:07;41.03;;;3.47;;
11092;SDS011;5600;50.864;6.102;2022-12-22T05:28:08;39.20;;;3.43;;
11092;SDS011;5600;50.864;6.102;2022-12-22T05:31:09;53.13;;;4.67;;
11092;SDS011;5600;50.864;6.102;2022-12-22T05:34:15;47.00;;;4.37;;
11092;SDS011;5600;50.864;6.102;2022-12-22T05:37:16;57.40;;;5.47;;
11092;SDS011;5600;50.864;6.102;2022-12-22T05:40:16;46.10;;;4.53;;
11092;SDS011;5600;50.864;6.102;2022-12-22T05:43:17;47.17;;;6.10;;
11092;SDS011;5600;50.864;6.102;2022-12-22T05:46:18;73.67;;;7.03;;
11092;SDS011;5600;50.864;6.102;2022-12-22T05:49:18;61.70;;;5.53;;
11092;SDS011;5600;50.864;6.102;2022-12-22T05:52:19;44.90;;;4.70;;
11092;SDS011;5600;50.864;6.102;2022-12-22T05:55:20;62.43;;;5.47;;
11092;SDS011;5600;50.864;6.102;2022-12-22T05:58:20;47.13;;;6.00;;
11092;SDS011;5600;50.864;6.102;2022-12-22T06:01:21;49.80;;;5.00;;
11092;SDS011;5600;50.864;6.102;2022-12-22T06:04:22;57.73;;;5.40;;
11092;SDS011;5600;50.864;6.102;2022-12-22T06:07:22;51.57;;;5.37;;
11092;SDS011;5600;50.864;6.102;2022-12-22T06:10:23;46.77;;;5.17;;
11092;SDS011;5600;50.864;6.102;2022-12-22T06:13:24;61.87;;;5.50;;
11092;SDS011;5600;50.864;6.102;2022-12-22T06:16:25;52.80;;;5.13;;
11092;SDS011;5600;50.864;6.102;2022-12-22T06:19:26;47.73;;;5.20;;
11092;SDS011;5600;50.864;6.102;2022-12-22T06:22:26;51.13;;;5.37;;
11092;SDS011;5600;50.864;6.102;2022-12-22T06:25:27;52.33;;;5.70;;
11092;SDS011;5600;50.864;6.102;2022-12-22T06:28:28;52.57;;;6.67;;
11092;SDS011;5600;50.864;6.102;2022-12-22T06:31:28;69.80;;;7.30;;
11092;SDS011;5600;50.864;6.102;2022-12-22T06:34:29;44.90;;;6.50;;
11092;SDS011;5600;50.864;6.102;2022-12-22T06:37:30;63.37;;;7.87;;
11092;SDS011;5600;50.864;6.102;2022-12-22T06:40:31;67.67;;;8.03;;
11092;SDS011;5600;50.864;6.102;2022-12-22T06:43:31;74.20;;;9.00;;
11092;SDS011;5600;50.864;6.102;2022-12-22T06:46:32;79.53;;;9.13;;
11092;SDS011;5600;50.864;6.102;2022-12-22T06:49:33;78.93;;;10.03;;
11092;SDS011;5600;50.864;6.102;2022-12-22T06:52:33;48.37;;;9.13;;
11092;SDS011;5600;50.864;6.102;2022-12-22T06:55:34;52.53;;;11.30;;
11092;SDS011;5600;50.864;6.102;2022-12-22T06:58:35;52.77;;;10.77;;
11092;SDS011;5600;50.864;6.102;2022-12-22T07:01:36;54.70;;;9.87;;
11092;SDS011;5600;50.864;6.102;2022-12-22T07:04:37;55.90;;;9.93;;
11092;SDS011;5600;50.864;6.102;2022-12-22T07:07:37;62.87;;;9.97;;
11092;SDS011;5600;50.864;6.102;2022-12-22T07:10:38;77.37;;;10.37;;
11092;SDS011;5600;50.864;6.102;2022-12-22T07:13:57;67.63;;;10.97;;
11092;SDS011;5600;50.864;6.102;2022-12-22T07:16:57;63.23;;;11.10;;
11092;SDS011;5600;50.864;6.102;2022-12-22T07:19:58;52.83;;;10.73;;
11092;SDS011;5600;50.864;6.102;2022-12-22T07:22:58;66.07;;;11.77;;
11092;SDS011;5600;50.864;6.102;2022-12-22T07:25:59;103.13;;;13.63;;
11092;SDS011;5600;50.864;6.102;2022-12-22T07:29:01;50.90;;;9.73;;
11092;SDS011;5600;50.864;6.102;2022-12-22T07:32:02;51.57;;;9.13;;
11092;SDS011;5600;50.864;6.102;2022-12-22T07:35:03;47.23;;;8.50;;
11092;SDS011;5600;50.864;6.102;2022-12-22T07:38:04;56.80;;;9.00;;
11092;SDS011;5600;50.864;6.102;2022-12-22T07:41:05;78.63;;;10.13;;
11092;SDS011;5600;50.864;6.102;2022-12-22T07:44:27;59.27;;;9.53;;
11092;SDS011;5600;50.864;6.102;2022-12-22T07:47:28;69.83;;;10.53;;
11092;SDS011;5600;50.864;6.102;2022-12-22T07:50:28;43.87;;;9.30;;
11092;SDS011;5600;50.864;6.102;2022-12-22T07:53:32;50.83;;;9.13;;
11092;SDS011;5600;50.864;6.102;2022-12-22T07:56:34;56.30;;;10.53;;
11092;SDS011;5600;50.864;6.102;2022-12-22T07:59:35;51.93;;;10.00;;
11092;SDS011;5600;50.864;6.102;2022-12-22T08:02:35;49.33;;;10.37;;
11092;SDS011;5600;50.864;6.102;2022-12-22T08:05:36;87.07;;;12.40;;
11092;SDS011;5600;50.864;6.102;2022-12-22T08:08:37;70.07;;;12.00;;
11092;SDS011;5600;50.864;6.102;2022-12-22T08:11:38;78.10;;;13.60;;
11092;SDS011;5600;50.864;6.102;2022-12-22T08:14:39;73.17;;;12.93;;
11092;SDS011;5600;50.864;6.102;2022-12-22T08:17:40;106.53;;;15.60;;
11092;SDS011;5600;50.864;6.102;2022-12-22T08:20:46;90.83;;;15.03;;
11092;SDS011;5600;50.864;6.102;2022-12-22T08:23:48;76.17;;;13.70;;
11092;SDS011;5600;50.864;6.102;2022-12-22T08:26:50;71.80;;;13.40;;
11092;SDS011;5600;50.864;6.102;2022-12-22T08:29:54;70.33;;;13.90;;
11092;SDS011;5600;50.864;6.102;2022-12-22T08:32:57;89.13;;;14.97;;
11092;SDS011;5600;50.864;6.102;2022-12-22T08:35:58;74.20;;;15.30;;
11092;SDS011;5600;50.864;6.102;2022-12-22T08:38:59;73.90;;;15.93;;
11092;SDS011;5600;50.864;6.102;2022-12-22T08:42:02;78.50;;;16.30;;
11092;SDS011;5600;50.864;6.102;2022-12-22T08:45:05;89.27;;;16.57;;
11092;SDS011;5600;50.864;6.102;2022-12-22T08:48:08;79.10;;;16.17;;
11092;SDS011;5600;50.864;6.102;2022-12-22T08:51:09;82.23;;;14.93;;
11092;SDS011;5600;50.864;6.102;2022-12-22T08:54:10;72.77;;;14.93;;
11092;SDS011;5600;50.864;6.102;2022-12-22T08:57:11;82.13;;;13.07;;
11092;SDS011;5600;50.864;6.102;2022-12-22T09:00:12;85.10;;;12.97;;
11092;SDS011;5600;50.864;6.102;2022-12-22T09:03:14;80.40;;;12.17;;
11092;SDS011;5600;50.864;6.102;2022-12-22T09:06:15;68.60;;;12.17;;
11092;SDS011;5600;50.864;6.102;2022-12-22T09:09:16;66.97;;;12.67;;
11092;SDS011;5600;50.864;6.102;2022-12-22T09:12:17;64.17;;;12.03;;
11092;SDS011;5600;50.864;6.102;2022-12-22T09:15:18;52.03;;;12.17;;
11092;SDS011;5600;50.864;6.102;2022-12-22T09:18:18;73.93;;;14.10;;
11092;SDS011;5600;50.864;6.102;2022-12-22T09:21:19;68.33;;;14.97;;
11092;SDS011;5600;50.864;6.102;2022-12-22T09:24:21;82.93;;;15.10;;
11092;SDS011;5600;50.864;6.102;2022-12-22T09:27:22;87.63;;;15.63;;
11092;SDS011;5600;50.864;6.102;2022-12-22T09:30:22;139.87;;;18.17;;
11092;SDS011;5600;50.864;6.102;2022-12-22T09:33:23;61.90;;;14.33;;
11092;SDS011;5600;50.864;6.102;2022-12-22T09:36:26;74.57;;;15.03;;
11092;SDS011;5600;50.864;6.102;2022-12-22T09:39:29;69.17;;;14.57;;
11092;SDS011;5600;50.864;6.102;2022-12-22T09:42:30;72.10;;;14.67;;
11092;SDS011;5600;50.864;6.102;2022-12-22T09:45:34;71.00;;;14.23;;
11092;SDS011;5600;50.864;6.102;2022-12-22T09:48:35;80.77;;;14.80;;
11092;SDS011;5600;50.864;6.102;2022-12-22T09:51:41;79.17;;;13.70;;
11092;SDS011;5600;50.864;6.102;2022-12-22T09:54:43;69.10;;;14.33;;
11092;SDS011;5600;50.864;6.102;2022-12-22T09:57:44;124.57;;;15.90;;
11092;SDS011;5600;50.864;6.102;2022-12-22T10:00:46;74.20;;;14.47;;
11092;SDS011;5600;50.864;6.102;2022-12-22T10:04:03;59.00;;;13.87;;
11092;SDS011;5600;50.864;6.102;2022-12-22T10:10:29;64.87;;;15.00;;
11092;SDS011;5600;50.864;6.102;2022-12-22T10:13:30;65.37;;;14.07;;
11092;SDS011;5600;50.864;6.102;2022-12-22T10:16:31;71.37;;;13.73;;
11092;SDS011;5600;50.864;6.102;2022-12-22T10:19:32;70.67;;;14.33;;
11092;SDS011;5600;50.864;6.102;2022-12-22T10:22:39;54.47;;;13.93;;
11092;SDS011;5600;50.864;6.102;2022-12-22T10:29:04;74.93;;;15.00;;
11092;SDS011;5600;50.864;6.102;2022-12-22T10:32:13;74.90;;;14.57;;
11092;SDS011;5600;50.864;6.102;2022-12-22T10:35:17;73.33;;;13.47;;
11092;SDS011;5600;50.864;6.102;2022-12-22T10:41:24;62.40;;;12.43;;
11092;SDS011;5600;50.864;6.102;2022-12-22T10:44:29;76.30;;;12.53;;
11092;SDS011;5600;50.864;6.102;2022-12-22T10:47:36;81.00;;;12.70;;
11092;SDS011;5600;50.864;6.102;2022-12-22T10:50:42;95.23;;;14.83;;
11092;SDS011;5600;50.864;6.102;2022-12-22T10:53:49;79.83;;;13.57;;
11092;SDS011;5600;50.864;6.102;2022-12-22T11:00:23;98.87;;;14.63;;
11092;SDS011;5600;50.864;6.102;2022-12-22T11:03:28;57.53;;;13.07;;
11092;SDS011;5600;50.864;6.102;2022-12-22T11:06:30;78.60;;;13.97;;
11092;SDS011;5600;50.864;6.102;2022-12-22T11:09:31;59.83;;;12.30;;
11092;SDS011;5600;50.864;6.102;2022-12-22T11:12:52;77.90;;;13.43;;
11092;SDS011;5600;50.864;6.102;2022-12-22T11:16:02;52.17;;;12.60;;
11092;SDS011;5600;50.864;6.102;2022-12-22T11:22:51;79.23;;;13.80;;
11092;SDS011;5600;50.864;6.102;2022-12-22T11:32:50;73.63;;;11.73;;
11092;SDS011;5600;50.864;6.102;2022-12-22T11:36:18;63.10;;;10.17;;
11092;SDS011;5600;50.864;6.102;2022-12-22T11:42:39;65.17;;;10.77;;
11092;SDS011;5600;50.864;6.102;2022-12-22T12:16:56;74.43;;;10.23;;
11092;SDS011;5600;50.864;6.102;2022-12-22T12:30:06;99.30;;;10.97;;
11092;SDS011;5600;50.864;6.102;2022-12-22T12:36:25;56.93;;;9.90;;
11092;SDS011;5600;50.864;6.102;2022-12-22T12:39:30;59.93;;;10.07;;
11092;SDS011;5600;50.864;6.102;2022-12-22T12:42:36;66.17;;;10.87;;
11092;SDS011;5600;50.864;6.102;2022-12-22T12:45:42;58.63;;;9.27;;
11092;SDS011;5600;50.864;6.102;2022-12-22T12:48:44;56.30;;;9.13;;
11092;SDS011;5600;50.864;6.102;2022-12-22T12:51:48;65.23;;;9.03;;
11092;SDS011;5600;50.864;6.102;2022-12-22T12:54:49;70.63;;;8.47;;
11092;SDS011;5600;50.864;6.102;2022-12-22T12:57:51;116.03;;;10.30;;
11092;SDS011;5600;50.864;6.102;2022-12-22T13:00:51;65.17;;;7.47;;
11092;SDS011;5600;50.864;6.102;2022-12-22T13:03:52;90.87;;;8.50;;
11092;SDS011;5600;50.864;6.102;2022-12-22T13:06:53;45.20;;;6.50;;
11092;SDS011;5600;50.864;6.102;2022-12-22T13:10:39;69.63;;;7.77;;
11092;SDS011;5600;50.864;6.102;2022-12-22T13:16:23;69.60;;;7.87;;
11092;SDS011;5600;50.864;6.102;2022-12-22T13:19:27;47.57;;;7.47;;
11092;SDS011;5600;50.864;6.102;2022-12-22T13:22:29;46.37;;;6.60;;
11092;SDS011;5600;50.864;6.102;2022-12-22T13:25:40;55.47;;;7.03;;
11092;SDS011;5600;50.864;6.102;2022-12-22T13:28:50;71.13;;;8.03;;
11092;SDS011;5600;50.864;6.102;2022-12-22T13:31:55;60.13;;;7.87;;
11092;SDS011;5600;50.864;6.102;2022-12-22T13:38:23;58.73;;;7.50;;
11092;SDS011;5600;50.864;6.102;2022-12-22T13:41:32;50.53;;;6.77;;
11092;SDS011;5600;50.864;6.102;2022-12-22T13:44:33;57.83;;;6.13;;
11092;SDS011;5600;50.864;6.102;2022-12-22T13:47:34;59.13;;;6.30;;
11092;SDS011;5600;50.864;6.102;2022-12-22T13:50:49;60.13;;;5.90;;
11092;SDS011;5600;50.864;6.102;2022-12-22T13:53:56;59.20;;;5.43;;
11092;SDS011;5600;50.864;6.102;2022-12-22T13:56:59;59.33;;;5.13;;
11092;SDS011;5600;50.864;6.102;2022-12-22T14:00:03;76.10;;;6.00;;
11092;SDS011;5600;50.864;6.102;2022-12-22T14:03:15;61.20;;;5.00;;
11092;SDS011;5600;50.864;6.102;2022-12-22T14:09:27;66.83;;;5.63;;
11092;SDS011;5600;50.864;6.102;2022-12-22T14:12:29;61.40;;;5.23;;
11092;SDS011;5600;50.864;6.102;2022-12-22T14:15:33;61.40;;;5.20;;
11092;SDS011;5600;50.864;6.102;2022-12-22T14:18:34;63.37;;;4.87;;
11092;SDS011;5600;50.864;6.102;2022-12-22T14:21:37;57.33;;;4.63;;
11092;SDS011;5600;50.864;6.102;2022-12-22T14:24:41;51.30;;;4.17;;
11092;SDS011;5600;50.864;6.102;2022-12-22T14:27:46;97.47;;;6.70;;
11092;SDS011;5600;50.864;6.102;2022-12-22T14:30:49;53.83;;;4.50;;
11092;SDS011;5600;50.864;6.102;2022-12-22T14:33:53;57.33;;;4.50;;
11092;SDS011;5600;50.864;6.102;2022-12-22T14:37:07;102.87;;;6.97;;
11092;SDS011;5600;50.864;6.102;2022-12-22T14:40:14;80.83;;;5.90;;
11092;SDS011;5600;50.864;6.102;2022-12-22T14:43:35;100.83;;;6.67;;
11092;SDS011;5600;50.864;6.102;2022-12-22T14:46:35;66.07;;;5.17;;
11092;SDS011;5600;50.864;6.102;2022-12-22T14:49:53;60.63;;;4.70;;
11092;SDS011;5600;50.864;6.102;2022-12-22T14:52:58;51.90;;;4.07;;
11092;SDS011;5600;50.864;6.102;2022-12-22T14:56:00;40.57;;;3.40;;
11092;SDS011;5600;50.864;6.102;2022-12-22T14:59:08;59.90;;;4.50;;
11092;SDS011;5600;50.864;6.102;2022-12-22T15:02:19;41.50;;;3.27;;
11092;SDS011;5600;50.864;6.102;2022-12-22T15:08:38;50.73;;;3.90;;
11092;SDS011;5600;50.864;6.102;2022-12-22T15:11:44;63.70;;;4.53;;
11092;SDS011;5600;50.864;6.102;2022-12-22T15:14:47;82.27;;;5.37;;
11092;SDS011;5600;50.864;6.102;2022-12-22T15:17:48;100.23;;;6.00;;
11092;SDS011;5600;50.864;6.102;2022-12-22T15:20:52;51.13;;;3.50;;
11092;SDS011;5600;50.864;6.102;2022-12-22T15:23:53;65.57;;;4.60;;
11092;SDS011;5600;50.864;6.102;2022-12-22T15:26:54;34.87;;;3.20;;
11092;SDS011;5600;50.864;6.102;2022-12-22T15:29:55;57.07;;;4.40;;
11092;SDS011;5600;50.864;6.102;2022-12-22T15:32:56;60.57;;;4.50;;
11092;SDS011;5600;50.864;6.102;2022-12-22T15:35:56;65.50;;;4.90;;
11092;SDS011;5600;50.864;6.102;2022-12-22T15:38:57;50.43;;;3.83;;
11092;SDS011;5600;50.864;6.102;2022-12-22T15:41:58;75.13;;;5.23;;
11092;SDS011;5600;50.864;6.102;2022-12-22T15:44:58;68.30;;;5.03;;
11092;SDS011;5600;50.864;6.102;2022-12-22T15:47:59;88.77;;;6.37;;
11092;SDS011;5600;50.864;6.102;2022-12-22T15:51:01;62.80;;;4.73;;
11092;SDS011;5600;50.864;6.102;2022-12-22T15:54:04;67.60;;;5.20;;
11092;SDS011;5600;50.864;6.102;2022-12-22T15:57:11;76.10;;;5.73;;
11092;SDS011;5600;50.864;6.102;2022-12-22T16:00:13;72.63;;;5.50;;
11092;SDS011;5600;50.864;6.102;2022-12-22T16:03:14;59.30;;;5.80;;
11092;SDS011;5600;50.864;6.102;2022-12-22T16:06:16;68.80;;;6.90;;
11092;SDS011;5600;50.864;6.102;2022-12-22T16:09:25;80.27;;;7.03;;
11092;SDS011;5600;50.864;6.102;2022-12-22T16:12:28;72.00;;;5.70;;
11092;SDS011;5600;50.864;6.102;2022-12-22T16:15:31;78.70;;;5.90;;
11092;SDS011;5600;50.864;6.102;2022-12-22T16:18:33;76.97;;;5.60;;
11092;SDS011;5600;50.864;6.102;2022-12-22T16:21:34;69.10;;;5.60;;
11092;SDS011;5600;50.864;6.102;2022-12-22T16:24:34;64.90;;;5.10;;
11092;SDS011;5600;50.864;6.102;2022-12-22T16:27:37;94.60;;;7.17;;
11092;SDS011;5600;50.864;6.102;2022-12-22T16:30:38;75.97;;;5.50;;
11092;SDS011;5600;50.864;6.102;2022-12-22T16:33:38;59.70;;;5.47;;
11092;SDS011;5600;50.864;6.102;2022-12-22T16:36:39;63.57;;;4.90;;
11092;SDS011;5600;50.864;6.102;2022-12-22T16:39:40;55.97;;;4.70;;
11092;SDS011;5600;50.864;6.102;2022-12-22T16:42:42;62.03;;;5.17;;
11092;SDS011;5600;50.864;6.102;2022-12-22T16:45:49;63.43;;;5.30;;
11092;SDS011;5600;50.864;6.102;2022-12-22T16:48:51;47.90;;;4.13;;
11092;SDS011;5600;50.864;6.102;2022-12-22T16:51:59;59.50;;;5.73;;
11092;SDS011;5600;50.864;6.102;2022-12-22T16:55:01;50.67;;;4.80;;
11092;SDS011;5600;50.864;6.102;2022-12-22T16:58:01;53.10;;;4.60;;
11092;SDS011;5600;50.864;6.102;2022-12-22T17:01:02;109.20;;;7.60;;
11092;SDS011;5600;50.864;6.102;2022-12-22T17:04:05;146.60;;;9.40;;
11092;SDS011;5600;50.864;6.102;2022-12-22T17:07:08;131.30;;;8.80;;
11092;SDS011;5600;50.864;6.102;2022-12-22T17:13:14;145.03;;;9.47;;
11092;SDS011;5600;50.864;6.102;2022-12-22T17:16:19;125.73;;;8.33;;
11092;SDS011;5600;50.864;6.102;2022-12-22T17:19:21;138.53;;;9.23;;
11092;SDS011;5600;50.864;6.102;2022-12-22T17:22:23;81.47;;;6.63;;
11092;SDS011;5600;50.864;6.102;2022-12-22T17:25:26;81.20;;;6.93;;
11092;SDS011;5600;50.864;6.102;2022-12-22T17:28:28;147.93;;;11.00;;
11092;SDS011;5600;50.864;6.102;2022-12-22T17:31:29;139.40;;;10.03;;
11092;SDS011;5600;50.864;6.102;2022-12-22T17:34:30;105.03;;;8.17;;
11092;SDS011;5600;50.864;6.102;2022-12-22T17:37:30;108.63;;;8.83;;
11092;SDS011;5600;50.864;6.102;2022-12-22T17:40:31;154.60;;;10.80;;
11092;SDS011;5600;50.864;6.102;2022-12-22T17:43:33;108.00;;;8.47;;
11092;SDS011;5600;50.864;6.102;2022-12-22T17:46:34;120.93;;;8.97;;
11092;SDS011;5600;50.864;6.102;2022-12-22T17:49:34;142.63;;;10.10;;
11092;SDS011;5600;50.864;6.102;2022-12-22T17:52:35;138.97;;;10.23;;
11092;SDS011;5600;50.864;6.102;2022-12-22T17:55:35;118.97;;;9.37;;
11092;SDS011;5600;50.864;6.102;2022-12-22T17:58:36;123.10;;;9.47;;
11092;SDS011;5600;50.864;6.102;2022-12-22T18:01:37;136.93;;;11.37;;
11092;SDS011;5600;50.864;6.102;2022-12-22T18:04:39;96.93;;;7.77;;
11092;SDS011;5600;50.864;6.102;2022-12-22T18:07:39;161.53;;;11.03;;
11092;SDS011;5600;50.864;6.102;2022-12-22T18:10:41;122.13;;;9.00;;
11092;SDS011;5600;50.864;6.102;2022-12-22T18:13:42;136.77;;;10.17;;
11092;SDS011;5600;50.864;6.102;2022-12-22T18:16:42;146.27;;;10.20;;
11092;SDS011;5600;50.864;6.102;2022-12-22T18:19:43;137.97;;;10.23;;
11092;SDS011;5600;50.864;6.102;2022-12-22T18:22:44;115.90;;;9.07;;
11092;SDS011;5600;50.864;6.102;2022-12-22T18:25:45;87.10;;;7.33;;
11092;SDS011;5600;50.864;6.102;2022-12-22T18:28:46;148.43;;;10.60;;
11092;SDS011;5600;50.864;6.102;2022-12-22T18:31:47;140.40;;;10.20;;
11092;SDS011;5600;50.864;6.102;2022-12-22T18:34:47;170.77;;;12.20;;
11092;SDS011;5600;50.864;6.102;2022-12-22T18:37:48;129.50;;;9.50;;
11092;SDS011;5600;50.864;6.102;2022-12-22T18:40:51;81.07;;;7.47;;
11092;SDS011;5600;50.864;6.102;2022-12-22T18:43:52;97.97;;;8.17;;
11092;SDS011;5600;50.864;6.102;2022-12-22T18:46:52;74.83;;;8.17;;
11092;SDS011;5600;50.864;6.102;2022-12-22T18:49:55;88.00;;;8.20;;
11092;SDS011;5600;50.864;6.102;2022-12-22T18:52:58;381.63;;;22.07;;
11092;SDS011;5600;50.864;6.102;2022-12-22T18:56:01;103.23;;;8.60;;
11092;SDS011;5600;50.864;6.102;2022-12-22T18:59:04;93.63;;;8.83;;
11092;SDS011;5600;50.864;6.102;2022-12-22T19:05:20;127.40;;;9.83;;
11092;SDS011;5600;50.864;6.102;2022-12-22T19:08:26;124.07;;;9.67;;
11092;SDS011;5600;50.864;6.102;2022-12-22T19:11:30;124.77;;;9.57;;
11092;SDS011;5600;50.864;6.102;2022-12-22T19:14:31;142.70;;;10.60;;
11092;SDS011;5600;50.864;6.102;2022-12-22T19:17:32;142.63;;;10.40;;
11092;SDS011;5600;50.864;6.102;2022-12-22T19:20:32;242.60;;;16.10;;
11092;SDS011;5600;50.864;6.102;2022-12-22T19:23:33;136.07;;;9.70;;
11092;SDS011;5600;50.864;6.102;2022-12-22T19:26:33;111.20;;;9.13;;
11092;SDS011;5600;50.864;6.102;2022-12-22T19:29:34;138.93;;;10.47;;
11092;SDS011;5600;50.864;6.102;2022-12-22T19:32:38;117.83;;;9.27;;
11092;SDS011;5600;50.864;6.102;2022-12-22T19:35:44;77.10;;;6.93;;
11092;SDS011;5600;50.864;6.102;2022-12-22T19:38:45;76.93;;;6.97;;
11092;SDS011;5600;50.864;6.102;2022-12-22T19:41:46;119.43;;;9.03;;
11092;SDS011;5600;50.864;6.102;2022-12-22T19:44:52;106.37;;;8.33;;
11092;SDS011;5600;50.864;6.102;2022-12-22T19:47:54;114.10;;;8.37;;
11092;SDS011;5600;50.864;6.102;2022-12-22T19:50:56;77.67;;;6.57;;
11092;SDS011;5600;50.864;6.102;2022-12-22T19:53:56;125.77;;;8.70;;
11092;SDS011;5600;50.864;6.102;2022-12-22T19:56:57;119.47;;;8.03;;
11092;SDS011;5600;50.864;6.102;2022-12-22T19:59:58;129.57;;;9.03;;
11092;SDS011;5600;50.864;6.102;2022-12-22T20:02:59;120.27;;;8.50;;
11092;SDS011;5600;50.864;6.102;2022-12-22T20:05:59;114.10;;;7.87;;
11092;SDS011;5600;50.864;6.102;2022-12-22T20:09:00;105.27;;;7.93;;
11092;SDS011;5600;50.864;6.102;2022-12-22T20:12:02;94.77;;;8.00;;
11092;SDS011;5600;50.864;6.102;2022-12-22T20:18:20;141.57;;;9.77;;
11092;SDS011;5600;50.864;6.102;2022-12-22T20:21:27;447.83;;;25.17;;